Eihoumaru No.65 — JD3328 — position and weather

sailwx.info

Track history (hours):
 
Tides and Currents Weather Stations Pressure Air Temp Water Temp Dewpoint Dewpoint Depression Visibility Wind Speed Wind Dir Waves Ship Positions

Eihoumaru No.65

Last reported at 2018-Jun-18 22:53 UTC. Time now 2018-Jun-19 23:24 UTC.
Position N 33°51' E 135°03'.

Length 62 m; draft 3 m.

Type: Tanker. MMSI: 431003364.

Date/timePositionNaut miles runAvg speedWind from/ knotsBaromVisibWave heightAir tempDewpointWater temp
2018-Jun-18 22:53N 33°51' E 135°03'511.4
2018-Jun-18 22:27N 33°55' E 134°59'511.8
2018-Jun-18 22:00N 33°59' E 134°54'612.2
2018-Jun-18 21:28N 34°04' E 134°49'2912.2
2018-Jun-18 19:08N 34°21' E 134°22'  
2018-Jun-16 13:46N 34°21' E 134°22'311.9
2018-Jun-16 13:30N 34°20' E 134°26'1311.5
2018-Jun-16 12:25N 34°14' E 134°39'912.0
2018-Jun-16 11:39N 34°07' E 134°46'211.6
2018-Jun-16 11:27N 34°05' E 134°48'511.5
2018-Jun-16 11:00N 34°02' E 134°52'611.7
2018-Jun-16 10:30N 33°57' E 134°57'611.9
2018-Jun-16 10:00N 33°52' E 135°01'242 9.4
2018-Jun-15 08:08N 35°07' E 139°41'212.1
2018-Jun-15 07:59N 35°08' E 139°42'511.3
2018-Jun-15 07:30N 35°12' E 139°46'5 9.8
2018-Jun-15 07:00N 35°17' E 139°45'510.4
2018-Jun-15 06:30N 35°22' E 139°42'510.5
2018-Jun-15 06:00N 35°26' E 139°46'611.3
2018-Jun-15 05:30N 35°30' E 139°52'3 0.1
2018-Jun-13 22:30N 35°29' E 139°56'0 0.0
2018-Jun-13 20:01N 35°29' E 139°56'0 0.0
2018-Jun-13 19:59N 35°29' E 139°56'0 0.0
2018-Jun-13 19:30N 35°29' E 139°56'0 0.0
2018-Jun-13 18:54N 35°29' E 139°56'0 0.0
2018-Jun-13 18:30N 35°29' E 139°56'0 0.1
2018-Jun-13 18:00N 35°29' E 139°56'0 0.0
2018-Jun-13 17:29N 35°29' E 139°56'0 0.0
2018-Jun-13 13:57N 35°29' E 139°56'0 0.0
2018-Jun-13 13:29N 35°29' E 139°56'0 0.0
2018-Jun-13 12:50N 35°29' E 139°56'0 0.1
2018-Jun-13 12:15N 35°29' E 139°56'0 0.0
2018-Jun-13 12:00N 35°29' E 139°56'0 0.0
2018-Jun-13 11:28N 35°29' E 139°56'0 0.0
2018-Jun-13 10:59N 35°29' E 139°56'0 0.0
2018-Jun-13 10:30N 35°29' E 139°56'0 0.0
2018-Jun-13 09:57N 35°29' E 139°56'0 0.0
2018-Jun-13 09:16N 35°29' E 139°56'0 0.0
2018-Jun-13 09:00N 35°29' E 139°56'0 0.0
2018-Jun-13 08:30N 35°29' E 139°56'0 0.0
2018-Jun-13 07:59N 35°29' E 139°56'0 0.0
2018-Jun-13 07:29N 35°29' E 139°56'0 0.0
2018-Jun-13 06:59N 35°29' E 139°56'0 0.0
2018-Jun-13 06:29N 35°29' E 139°56'0 0.0
2018-Jun-13 06:00N 35°29' E 139°56'0 0.0
2018-Jun-13 05:29N 35°29' E 139°56'0 0.0
2018-Jun-13 05:00N 35°29' E 139°56'0 0.0
2018-Jun-13 03:56N 35°29' E 139°56'2 5.4
2018-Jun-13 03:30N 35°28' E 139°53'610.9
2018-Jun-13 02:55N 35°24' E 139°47'511.3
2018-Jun-13 02:29N 35°20' E 139°44'510.2
2018-Jun-13 02:00N 35°15' E 139°47'249 9.7
2018-Jun-12 00:19N 33°53' E 135°02'411.8
2018-Jun-12 00:00N 33°56' E 134°59'611.5
2018-Jun-11 23:30N 33°60' E 134°54'611.8
2018-Jun-11 22:58N 34°04' E 134°49'26 7.9
2018-Jun-11 19:38N 34°20' E 134°24'1 8.8
2018-Jun-11 19:30N 34°21' E 134°23'  
2018-Jun-09 06:44N 34°25' E 134°22'312.7
2018-Jun-09 06:29N 34°26' E 134°25'612.7
2018-Jun-09 05:59N 34°29' E 134°32'612.9
2018-Jun-09 05:30N 34°31' E 134°40'712.6
2018-Jun-09 04:58N 34°33' E 134°47'1012.1
2018-Jun-09 04:10N 34°37' E 134°58'310.7
2018-Jun-09 03:55N 34°37' E 135°01'410.6
2018-Jun-09 03:31N 34°37' E 135°06'713.0
2018-Jun-09 03:01N 34°37' E 135°14'5 9.6
2018-Jun-09 02:30N 34°42' E 135°16'0 0.1
2018-Jun-09 02:01N 34°42' E 135°16'0 0.0
2018-Jun-09 01:30N 34°42' E 135°16'0 0.0
2018-Jun-09 01:00N 34°42' E 135°16'0 0.0
2018-Jun-09 00:30N 34°42' E 135°16'0 0.0
2018-Jun-09 00:01N 34°42' E 135°16'0 0.0
2018-Jun-08 23:30N 34°42' E 135°16'1 2.0
2018-Jun-08 23:00N 34°41' E 135°15'  
Track history (hours):
 
Tides and Currents Weather Stations Pressure Air Temp Water Temp Dewpoint Dewpoint Depression Visibility Wind Speed Wind Dir Waves Ship Positions

Eihoumaru No.65

Last reported at 2018-Jun-18 22:53 UTC. Time now 2018-Jun-19 23:24 UTC.
Position N 33°51' E 135°03'.

Length 62 m; draft 3 m.

Type: Tanker. MMSI: 431003364.

Date/timePositionNaut miles runAvg speedWind from/ knotsBaromVisibWave heightAir tempDewpointWater temp
2018-Jun-18 22:53N 33°51' E 135°03'511.4
2018-Jun-18 22:27N 33°55' E 134°59'511.8
2018-Jun-18 22:00N 33°59' E 134°54'612.2
2018-Jun-18 21:28N 34°04' E 134°49'2912.2
2018-Jun-18 19:08N 34°21' E 134°22'  
2018-Jun-16 13:46N 34°21' E 134°22'311.9
2018-Jun-16 13:30N 34°20' E 134°26'1311.5
2018-Jun-16 12:25N 34°14' E 134°39'912.0
2018-Jun-16 11:39N 34°07' E 134°46'211.6
2018-Jun-16 11:27N 34°05' E 134°48'511.5
2018-Jun-16 11:00N 34°02' E 134°52'611.7
2018-Jun-16 10:30N 33°57' E 134°57'611.9
2018-Jun-16 10:00N 33°52' E 135°01'242 9.4
2018-Jun-15 08:08N 35°07' E 139°41'212.1
2018-Jun-15 07:59N 35°08' E 139°42'511.3
2018-Jun-15 07:30N 35°12' E 139°46'5 9.8
2018-Jun-15 07:00N 35°17' E 139°45'510.4
2018-Jun-15 06:30N 35°22' E 139°42'510.5
2018-Jun-15 06:00N 35°26' E 139°46'611.3
2018-Jun-15 05:30N 35°30' E 139°52'3 0.1
2018-Jun-13 22:30N 35°29' E 139°56'0 0.0
2018-Jun-13 20:01N 35°29' E 139°56'0 0.0
2018-Jun-13 19:59N 35°29' E 139°56'0 0.0
2018-Jun-13 19:30N 35°29' E 139°56'0 0.0
2018-Jun-13 18:54N 35°29' E 139°56'0 0.0
2018-Jun-13 18:30N 35°29' E 139°56'0 0.1
2018-Jun-13 18:00N 35°29' E 139°56'0 0.0
2018-Jun-13 17:29N 35°29' E 139°56'0 0.0
2018-Jun-13 13:57N 35°29' E 139°56'0 0.0
2018-Jun-13 13:29N 35°29' E 139°56'0 0.0
2018-Jun-13 12:50N 35°29' E 139°56'0 0.1
2018-Jun-13 12:15N 35°29' E 139°56'0 0.0
2018-Jun-13 12:00N 35°29' E 139°56'0 0.0
2018-Jun-13 11:28N 35°29' E 139°56'0 0.0
2018-Jun-13 10:59N 35°29' E 139°56'0 0.0
2018-Jun-13 10:30N 35°29' E 139°56'0 0.0
2018-Jun-13 09:57N 35°29' E 139°56'0 0.0
2018-Jun-13 09:16N 35°29' E 139°56'0 0.0
2018-Jun-13 09:00N 35°29' E 139°56'0 0.0
2018-Jun-13 08:30N 35°29' E 139°56'0 0.0
2018-Jun-13 07:59N 35°29' E 139°56'0 0.0
2018-Jun-13 07:29N 35°29' E 139°56'0 0.0
2018-Jun-13 06:59N 35°29' E 139°56'0 0.0
2018-Jun-13 06:29N 35°29' E 139°56'0 0.0
2018-Jun-13 06:00N 35°29' E 139°56'0 0.0
2018-Jun-13 05:29N 35°29' E 139°56'0 0.0
2018-Jun-13 05:00N 35°29' E 139°56'0 0.0
2018-Jun-13 03:56N 35°29' E 139°56'2 5.4
2018-Jun-13 03:30N 35°28' E 139°53'610.9
2018-Jun-13 02:55N 35°24' E 139°47'511.3
2018-Jun-13 02:29N 35°20' E 139°44'510.2
2018-Jun-13 02:00N 35°15' E 139°47'249 9.7
2018-Jun-12 00:19N 33°53' E 135°02'411.8
2018-Jun-12 00:00N 33°56' E 134°59'611.5
2018-Jun-11 23:30N 33°60' E 134°54'611.8
2018-Jun-11 22:58N 34°04' E 134°49'26 7.9
2018-Jun-11 19:38N 34°20' E 134°24'1 8.8
2018-Jun-11 19:30N 34°21' E 134°23'  
2018-Jun-09 06:44N 34°25' E 134°22'312.7
2018-Jun-09 06:29N 34°26' E 134°25'612.7
2018-Jun-09 05:59N 34°29' E 134°32'612.9
2018-Jun-09 05:30N 34°31' E 134°40'712.6
2018-Jun-09 04:58N 34°33' E 134°47'1012.1
2018-Jun-09 04:10N 34°37' E 134°58'310.7
2018-Jun-09 03:55N 34°37' E 135°01'410.6
2018-Jun-09 03:31N 34°37' E 135°06'713.0
2018-Jun-09 03:01N 34°37' E 135°14'5 9.6
2018-Jun-09 02:30N 34°42' E 135°16'0 0.1
2018-Jun-09 02:01N 34°42' E 135°16'0 0.0
2018-Jun-09 01:30N 34°42' E 135°16'0 0.0
2018-Jun-09 01:00N 34°42' E 135°16'0 0.0
2018-Jun-09 00:30N 34°42' E 135°16'0 0.0
2018-Jun-09 00:01N 34°42' E 135°16'0 0.0
2018-Jun-08 23:30N 34°42' E 135°16'1 2.0
2018-Jun-08 23:00N 34°41' E 135°15'  

Dump ship's entire track history